sensor_id;sensor_type;location;lat;lon;timestamp;noise_LAeq;noise_LA_min;noise_LA_max;noise_LA01;noise_LA95
37162;Laerm;68342;52.598;13.450;2023-11-18T00:01:31;38.86;34.14;52.08;;
37162;Laerm;68342;52.598;13.450;2023-11-18T00:03:58;38.34;32.85;50.87;;
37162;Laerm;68342;52.598;13.450;2023-11-18T00:06:23;41.31;34.54;51.39;;
37162;Laerm;68342;52.598;13.450;2023-11-18T00:08:48;38.86;34.55;53.01;;
37162;Laerm;68342;52.598;13.450;2023-11-18T00:11:14;38.51;33.50;51.78;;
37162;Laerm;68342;52.598;13.450;2023-11-18T00:13:40;38.30;33.08;52.57;;
37162;Laerm;68342;52.598;13.450;2023-11-18T00:16:07;39.49;34.16;52.15;;
37162;Laerm;68342;52.598;13.450;2023-11-18T00:18:36;38.84;32.35;52.10;;
37162;Laerm;68342;52.598;13.450;2023-11-18T00:21:01;38.37;33.35;51.64;;
37162;Laerm;68342;52.598;13.450;2023-11-18T00:23:27;37.99;32.51;59.43;;
37162;Laerm;68342;52.598;13.450;2023-11-18T00:25:54;37.43;33.04;53.33;;
37162;Laerm;68342;52.598;13.450;2023-11-18T00:28:19;38.48;33.01;57.35;;
37162;Laerm;68342;52.598;13.450;2023-11-18T00:30:45;38.89;33.44;55.86;;
37162;Laerm;68342;52.598;13.450;2023-11-18T00:33:10;39.33;34.21;53.13;;
37162;Laerm;68342;52.598;13.450;2023-11-18T00:35:36;40.27;34.43;52.80;;
37162;Laerm;68342;52.598;13.450;2023-11-18T00:38:02;40.13;36.28;52.92;;
37162;Laerm;68342;52.598;13.450;2023-11-18T00:40:27;37.90;32.79;55.00;;
37162;Laerm;68342;52.598;13.450;2023-11-18T00:42:54;37.75;32.64;52.16;;
37162;Laerm;68342;52.598;13.450;2023-11-18T00:45:20;40.87;35.13;54.89;;
37162;Laerm;68342;52.598;13.450;2023-11-18T00:47:45;39.02;34.12;50.58;;
37162;Laerm;68342;52.598;13.450;2023-11-18T00:50:11;39.80;35.92;54.31;;
37162;Laerm;68342;52.598;13.450;2023-11-18T00:52:36;39.53;34.38;55.90;;
37162;Laerm;68342;52.598;13.450;2023-11-18T00:55:04;38.75;33.63;55.79;;
37162;Laerm;68342;52.598;13.450;2023-11-18T00:57:31;39.86;33.44;52.79;;
37162;Laerm;68342;52.598;13.450;2023-11-18T00:59:56;38.53;33.46;53.45;;
37162;Laerm;68342;52.598;13.450;2023-11-18T01:02:23;39.65;34.72;54.01;;
37162;Laerm;68342;52.598;13.450;2023-11-18T01:04:48;39.02;33.89;53.50;;
37162;Laerm;68342;52.598;13.450;2023-11-18T01:07:13;40.02;34.78;53.42;;
37162;Laerm;68342;52.598;13.450;2023-11-18T01:09:39;39.39;33.77;51.93;;
37162;Laerm;68342;52.598;13.450;2023-11-18T01:12:05;37.80;32.33;51.96;;
37162;Laerm;68342;52.598;13.450;2023-11-18T01:14:33;40.92;33.79;54.42;;
37162;Laerm;68342;52.598;13.450;2023-11-18T01:16:59;38.17;33.31;51.29;;
37162;Laerm;68342;52.598;13.450;2023-11-18T01:19:24;38.25;33.03;52.21;;
37162;Laerm;68342;52.598;13.450;2023-11-18T01:21:50;39.37;32.62;55.65;;
37162;Laerm;68342;52.598;13.450;2023-11-18T01:24:18;37.49;31.36;52.00;;
37162;Laerm;68342;52.598;13.450;2023-11-18T01:26:43;37.58;31.38;54.18;;
37162;Laerm;68342;52.598;13.450;2023-11-18T01:29:10;37.68;31.68;55.97;;
37162;Laerm;68342;52.598;13.450;2023-11-18T01:31:36;38.33;32.81;52.13;;
37162;Laerm;68342;52.598;13.450;2023-11-18T01:34:01;37.70;31.04;52.47;;
37162;Laerm;68342;52.598;13.450;2023-11-18T01:36:30;37.13;31.15;52.51;;
37162;Laerm;68342;52.598;13.450;2023-11-18T01:38:56;37.90;32.76;52.35;;
37162;Laerm;68342;52.598;13.450;2023-11-18T01:41:21;36.54;31.22;53.42;;
37162;Laerm;68342;52.598;13.450;2023-11-18T01:43:47;38.27;32.67;50.99;;
37162;Laerm;68342;52.598;13.450;2023-11-18T01:46:12;38.19;32.25;55.21;;
37162;Laerm;68342;52.598;13.450;2023-11-18T01:48:38;37.98;32.56;56.36;;
37162;Laerm;68342;52.598;13.450;2023-11-18T01:51:04;37.47;31.09;53.31;;
37162;Laerm;68342;52.598;13.450;2023-11-18T01:53:31;37.47;32.20;54.38;;
37162;Laerm;68342;52.598;13.450;2023-11-18T01:55:58;40.97;34.50;51.79;;
37162;Laerm;68342;52.598;13.450;2023-11-18T01:58:24;38.33;33.28;56.23;;
37162;Laerm;68342;52.598;13.450;2023-11-18T02:00:50;38.22;32.02;54.48;;
37162;Laerm;68342;52.598;13.450;2023-11-18T02:03:16;37.70;32.33;51.88;;
37162;Laerm;68342;52.598;13.450;2023-11-18T02:05:42;36.55;31.76;53.12;;
37162;Laerm;68342;52.598;13.450;2023-11-18T02:08:07;38.88;32.81;53.55;;
37162;Laerm;68342;52.598;13.450;2023-11-18T02:10:36;40.72;33.58;55.52;;
37162;Laerm;68342;52.598;13.450;2023-11-18T02:15:34;40.42;33.78;55.29;;
37162;Laerm;68342;52.598;13.450;2023-11-18T02:18:01;39.06;33.51;51.99;;
37162;Laerm;68342;52.598;13.450;2023-11-18T02:20:28;38.63;32.20;57.45;;
37162;Laerm;68342;52.598;13.450;2023-11-18T02:22:54;37.93;32.39;56.44;;
37162;Laerm;68342;52.598;13.450;2023-11-18T02:25:20;37.51;32.74;52.77;;
37162;Laerm;68342;52.598;13.450;2023-11-18T02:27:48;38.55;34.03;58.15;;
37162;Laerm;68342;52.598;13.450;2023-11-18T02:30:14;39.51;33.09;50.89;;
37162;Laerm;68342;52.598;13.450;2023-11-18T02:32:49;39.52;33.14;50.66;;
37162;Laerm;68342;52.598;13.450;2023-11-18T02:35:25;37.84;32.57;52.98;;
37162;Laerm;68342;52.598;13.450;2023-11-18T02:37:53;39.20;32.16;51.89;;
37162;Laerm;68342;52.598;13.450;2023-11-18T02:40:27;38.36;31.80;54.34;;
37162;Laerm;68342;52.598;13.450;2023-11-18T02:42:55;39.32;31.98;53.67;;
37162;Laerm;68342;52.598;13.450;2023-11-18T02:45:22;36.94;32.07;56.92;;
37162;Laerm;68342;52.598;13.450;2023-11-18T02:47:48;37.41;31.14;62.45;;
37162;Laerm;68342;52.598;13.450;2023-11-18T02:50:14;38.11;32.38;53.34;;
37162;Laerm;68342;52.598;13.450;2023-11-18T02:52:40;39.42;32.79;49.96;;
37162;Laerm;68342;52.598;13.450;2023-11-18T02:55:06;37.48;31.22;54.33;;
37162;Laerm;68342;52.598;13.450;2023-11-18T02:57:33;37.91;31.64;51.04;;
37162;Laerm;68342;52.598;13.450;2023-11-18T02:59:58;36.94;31.35;52.88;;
37162;Laerm;68342;52.598;13.450;2023-11-18T03:02:25;37.37;31.83;52.20;;
37162;Laerm;68342;52.598;13.450;2023-11-18T03:04:52;39.57;32.32;54.73;;
37162;Laerm;68342;52.598;13.450;2023-11-18T03:07:18;37.19;31.91;53.62;;
37162;Laerm;68342;52.598;13.450;2023-11-18T03:09:44;38.54;33.15;55.13;;
37162;Laerm;68342;52.598;13.450;2023-11-18T03:12:11;37.31;32.33;49.88;;
37162;Laerm;68342;52.598;13.450;2023-11-18T03:14:37;39.42;33.36;53.95;;
37162;Laerm;68342;52.598;13.450;2023-11-18T03:17:02;38.74;32.31;51.78;;
37162;Laerm;68342;52.598;13.450;2023-11-18T03:19:31;37.69;31.84;55.88;;
37162;Laerm;68342;52.598;13.450;2023-11-18T03:21:56;37.31;31.86;54.46;;
37162;Laerm;68342;52.598;13.450;2023-11-18T03:24:23;37.82;31.24;55.17;;
37162;Laerm;68342;52.598;13.450;2023-11-18T03:26:48;39.04;33.82;52.24;;
37162;Laerm;68342;52.598;13.450;2023-11-18T03:29:14;37.89;31.62;57.11;;
37162;Laerm;68342;52.598;13.450;2023-11-18T03:31:39;36.97;31.36;54.07;;
37162;Laerm;68342;52.598;13.450;2023-11-18T03:34:04;39.55;34.19;51.20;;
37162;Laerm;68342;52.598;13.450;2023-11-18T03:36:30;38.71;34.33;51.77;;
37162;Laerm;68342;52.598;13.450;2023-11-18T03:38:55;41.25;35.78;51.75;;
37162;Laerm;68342;52.598;13.450;2023-11-18T03:41:20;39.11;34.18;51.40;;
37162;Laerm;68342;52.598;13.450;2023-11-18T03:43:49;39.70;34.63;54.66;;
37162;Laerm;68342;52.598;13.450;2023-11-18T03:46:14;41.04;35.78;54.86;;
37162;Laerm;68342;52.598;13.450;2023-11-18T03:48:40;40.04;35.26;53.88;;
37162;Laerm;68342;52.598;13.450;2023-11-18T03:51:05;39.45;34.77;55.09;;
37162;Laerm;68342;52.598;13.450;2023-11-18T03:53:31;39.28;33.36;52.87;;
37162;Laerm;68342;52.598;13.450;2023-11-18T03:55:58;40.53;33.97;55.33;;
37162;Laerm;68342;52.598;13.450;2023-11-18T03:58:24;41.45;34.81;67.95;;
37162;Laerm;68342;52.598;13.450;2023-11-18T04:00:49;39.78;34.37;53.63;;
37162;Laerm;68342;52.598;13.450;2023-11-18T04:03:14;40.00;34.34;52.54;;
37162;Laerm;68342;52.598;13.450;2023-11-18T04:05:40;39.97;34.27;53.90;;
37162;Laerm;68342;52.598;13.450;2023-11-18T04:08:05;39.10;33.93;53.02;;
37162;Laerm;68342;52.598;13.450;2023-11-18T04:10:31;41.67;35.11;55.44;;
37162;Laerm;68342;52.598;13.450;2023-11-18T04:12:56;41.07;35.70;51.41;;
37162;Laerm;68342;52.598;13.450;2023-11-18T04:15:22;40.78;35.55;52.22;;
37162;Laerm;68342;52.598;13.450;2023-11-18T04:17:47;40.81;34.92;54.42;;
37162;Laerm;68342;52.598;13.450;2023-11-18T04:20:12;40.44;36.30;50.04;;
37162;Laerm;68342;52.598;13.450;2023-11-18T04:22:40;40.47;35.92;53.48;;
37162;Laerm;68342;52.598;13.450;2023-11-18T04:25:09;39.66;34.93;50.25;;
37162;Laerm;68342;52.598;13.450;2023-11-18T04:27:35;39.59;35.20;55.45;;
37162;Laerm;68342;52.598;13.450;2023-11-18T04:30:01;40.40;35.17;48.85;;
37162;Laerm;68342;52.598;13.450;2023-11-18T04:32:26;39.25;34.61;58.18;;
37162;Laerm;68342;52.598;13.450;2023-11-18T04:34:52;40.52;35.35;52.44;;
37162;Laerm;68342;52.598;13.450;2023-11-18T04:37:17;40.45;36.86;54.07;;
37162;Laerm;68342;52.598;13.450;2023-11-18T04:39:43;40.81;35.73;52.04;;
37162;Laerm;68342;52.598;13.450;2023-11-18T04:42:08;40.06;36.29;52.58;;
37162;Laerm;68342;52.598;13.450;2023-11-18T04:44:33;40.19;35.37;51.80;;
37162;Laerm;68342;52.598;13.450;2023-11-18T04:46:59;40.80;34.45;50.58;;
37162;Laerm;68342;52.598;13.450;2023-11-18T04:49:25;38.80;33.61;54.97;;
37162;Laerm;68342;52.598;13.450;2023-11-18T04:51:50;39.23;33.52;49.55;;
37162;Laerm;68342;52.598;13.450;2023-11-18T04:54:16;39.07;34.23;53.67;;
37162;Laerm;68342;52.598;13.450;2023-11-18T04:56:41;39.03;33.93;52.48;;
37162;Laerm;68342;52.598;13.450;2023-11-18T04:59:09;40.84;34.84;51.82;;
37162;Laerm;68342;52.598;13.450;2023-11-18T05:01:34;40.31;34.65;52.25;;
37162;Laerm;68342;52.598;13.450;2023-11-18T05:04:01;39.33;34.23;58.18;;
37162;Laerm;68342;52.598;13.450;2023-11-18T05:06:27;40.52;34.91;53.69;;
37162;Laerm;68342;52.598;13.450;2023-11-18T05:08:52;38.63;33.96;53.38;;
37162;Laerm;68342;52.598;13.450;2023-11-18T05:11:17;40.23;34.68;55.94;;
37162;Laerm;68342;52.598;13.450;2023-11-18T05:13:43;39.27;35.02;54.55;;
37162;Laerm;68342;52.598;13.450;2023-11-18T05:16:08;41.52;35.60;53.82;;
37162;Laerm;68342;52.598;13.450;2023-11-18T05:18:35;39.30;35.00;52.60;;
37162;Laerm;68342;52.598;13.450;2023-11-18T05:21:02;40.13;36.30;51.43;;
37162;Laerm;68342;52.598;13.450;2023-11-18T05:23:35;39.33;35.34;52.32;;
37162;Laerm;68342;52.598;13.450;2023-11-18T05:26:01;39.71;35.23;53.16;;
37162;Laerm;68342;52.598;13.450;2023-11-18T05:28:29;39.88;36.37;53.10;;
37162;Laerm;68342;52.598;13.450;2023-11-18T05:30:55;39.55;36.01;51.84;;
37162;Laerm;68342;52.598;13.450;2023-11-18T05:33:23;40.61;36.04;50.71;;
37162;Laerm;68342;52.598;13.450;2023-11-18T05:35:48;39.92;36.65;55.32;;
37162;Laerm;68342;52.598;13.450;2023-11-18T05:38:16;41.40;37.01;57.73;;
37162;Laerm;68342;52.598;13.450;2023-11-18T05:40:44;39.85;35.35;52.42;;
37162;Laerm;68342;52.598;13.450;2023-11-18T05:43:19;39.79;36.10;56.30;;
37162;Laerm;68342;52.598;13.450;2023-11-18T05:45:46;41.36;36.89;51.69;;
37162;Laerm;68342;52.598;13.450;2023-11-18T05:48:31;41.65;36.85;54.50;;
37162;Laerm;68342;52.598;13.450;2023-11-18T05:50:57;40.70;36.59;51.92;;
37162;Laerm;68342;52.598;13.450;2023-11-18T05:53:22;42.13;35.83;65.11;;
37162;Laerm;68342;52.598;13.450;2023-11-18T05:55:47;40.55;36.39;56.01;;
37162;Laerm;68342;52.598;13.450;2023-11-18T05:58:12;40.31;35.78;55.33;;
37162;Laerm;68342;52.598;13.450;2023-11-18T06:00:38;39.98;35.65;51.23;;
37162;Laerm;68342;52.598;13.450;2023-11-18T06:03:03;39.34;34.22;51.15;;
37162;Laerm;68342;52.598;13.450;2023-11-18T06:05:29;40.16;34.80;52.14;;
37162;Laerm;68342;52.598;13.450;2023-11-18T06:07:59;39.91;35.92;52.44;;
37162;Laerm;68342;52.598;13.450;2023-11-18T06:10:25;39.58;35.72;57.01;;
37162;Laerm;68342;52.598;13.450;2023-11-18T06:12:53;39.69;35.19;52.18;;
37162;Laerm;68342;52.598;13.450;2023-11-18T06:15:21;40.26;36.19;52.77;;
37162;Laerm;68342;52.598;13.450;2023-11-18T06:17:47;41.61;37.37;55.30;;
37162;Laerm;68342;52.598;13.450;2023-11-18T06:20:13;44.66;37.86;59.47;;
37162;Laerm;68342;52.598;13.450;2023-11-18T06:22:39;44.00;39.58;54.42;;
37162;Laerm;68342;52.598;13.450;2023-11-18T06:25:05;42.94;38.73;54.36;;
37162;Laerm;68342;52.598;13.450;2023-11-18T06:27:32;42.68;38.66;53.36;;
37162;Laerm;68342;52.598;13.450;2023-11-18T06:29:57;44.26;37.78;59.66;;
37162;Laerm;68342;52.598;13.450;2023-11-18T06:32:23;47.09;37.59;61.71;;
37162;Laerm;68342;52.598;13.450;2023-11-18T06:34:51;42.43;37.21;52.36;;
37162;Laerm;68342;52.598;13.450;2023-11-18T06:37:16;43.02;36.26;55.32;;
37162;Laerm;68342;52.598;13.450;2023-11-18T06:39:42;44.22;37.52;55.15;;
37162;Laerm;68342;52.598;13.450;2023-11-18T06:42:10;46.09;36.78;63.27;;
37162;Laerm;68342;52.598;13.450;2023-11-18T06:44:37;42.32;36.53;61.62;;
37162;Laerm;68342;52.598;13.450;2023-11-18T06:47:02;41.46;36.10;55.52;;
37162;Laerm;68342;52.598;13.450;2023-11-18T06:49:30;41.41;36.42;57.61;;
37162;Laerm;68342;52.598;13.450;2023-11-18T06:51:59;42.98;36.64;58.20;;
37162;Laerm;68342;52.598;13.450;2023-11-18T06:54:26;41.43;35.95;59.84;;
37162;Laerm;68342;52.598;13.450;2023-11-18T06:56:53;41.57;36.18;57.44;;
37162;Laerm;68342;52.598;13.450;2023-11-18T06:59:18;41.55;36.55;60.40;;
37162;Laerm;68342;52.598;13.450;2023-11-18T07:01:43;40.20;36.31;52.35;;
37162;Laerm;68342;52.598;13.450;2023-11-18T07:04:09;40.82;36.31;55.05;;
37162;Laerm;68342;52.598;13.450;2023-11-18T07:06:34;40.62;35.55;54.13;;
37162;Laerm;68342;52.598;13.450;2023-11-18T07:09:03;40.97;37.04;53.37;;
37162;Laerm;68342;52.598;13.450;2023-11-18T07:11:28;41.23;37.29;51.93;;
37162;Laerm;68342;52.598;13.450;2023-11-18T07:13:54;42.49;35.93;56.31;;
37162;Laerm;68342;52.598;13.450;2023-11-18T07:16:24;42.11;37.00;53.67;;
37162;Laerm;68342;52.598;13.450;2023-11-18T07:18:50;41.69;37.90;51.65;;
37162;Laerm;68342;52.598;13.450;2023-11-18T07:21:16;41.80;37.68;52.83;;
37162;Laerm;68342;52.598;13.450;2023-11-18T07:23:42;42.31;38.12;54.01;;
37162;Laerm;68342;52.598;13.450;2023-11-18T07:26:07;43.51;38.21;64.08;;
37162;Laerm;68342;52.598;13.450;2023-11-18T07:28:34;42.74;38.19;60.04;;
37162;Laerm;68342;52.598;13.450;2023-11-18T07:31:00;43.04;37.88;53.65;;
37162;Laerm;68342;52.598;13.450;2023-11-18T07:33:30;41.56;36.80;57.81;;
37162;Laerm;68342;52.598;13.450;2023-11-18T07:35:57;41.94;37.69;51.13;;
37162;Laerm;68342;52.598;13.450;2023-11-18T07:38:22;44.31;38.55;60.88;;
37162;Laerm;68342;52.598;13.450;2023-11-18T07:40:51;45.72;38.61;65.26;;
37162;Laerm;68342;52.598;13.450;2023-11-18T07:43:21;45.89;37.39;66.70;;
37162;Laerm;68342;52.598;13.450;2023-11-18T07:45:47;43.51;37.58;62.64;;
37162;Laerm;68342;52.598;13.450;2023-11-18T07:48:15;43.80;37.26;61.97;;
37162;Laerm;68342;52.598;13.450;2023-11-18T07:50:42;41.34;37.74;51.16;;
37162;Laerm;68342;52.598;13.450;2023-11-18T07:53:09;42.43;38.52;52.82;;
37162;Laerm;68342;52.598;13.450;2023-11-18T07:55:34;44.19;37.72;62.22;;
37162;Laerm;68342;52.598;13.450;2023-11-18T07:58:00;45.76;37.58;65.27;;
37162;Laerm;68342;52.598;13.450;2023-11-18T08:00:27;45.83;36.45;60.47;;
37162;Laerm;68342;52.598;13.450;2023-11-18T08:02:55;45.65;36.49;60.39;;
37162;Laerm;68342;52.598;13.450;2023-11-18T08:05:21;47.13;36.90;63.90;;
37162;Laerm;68342;52.598;13.450;2023-11-18T08:07:48;43.98;37.79;62.85;;
37162;Laerm;68342;52.598;13.450;2023-11-18T08:10:14;43.42;37.37;58.32;;
37162;Laerm;68342;52.598;13.450;2023-11-18T08:12:43;42.98;37.01;59.22;;
37162;Laerm;68342;52.598;13.450;2023-11-18T08:15:09;44.41;37.91;60.70;;
37162;Laerm;68342;52.598;13.450;2023-11-18T08:17:35;44.78;39.72;59.11;;
37162;Laerm;68342;52.598;13.450;2023-11-18T08:20:00;43.37;38.12;62.28;;
37162;Laerm;68342;52.598;13.450;2023-11-18T08:22:26;46.90;36.64;64.75;;
37162;Laerm;68342;52.598;13.450;2023-11-18T08:24:51;42.50;37.89;57.41;;
37162;Laerm;68342;52.598;13.450;2023-11-18T08:27:17;42.65;37.57;55.44;;
37162;Laerm;68342;52.598;13.450;2023-11-18T08:29:42;44.34;38.09;62.30;;
37162;Laerm;68342;52.598;13.450;2023-11-18T08:32:07;48.31;38.79;66.13;;
37162;Laerm;68342;52.598;13.450;2023-11-18T08:34:35;45.12;38.50;62.85;;
37162;Laerm;68342;52.598;13.450;2023-11-18T08:37:01;43.05;37.57;61.18;;
37162;Laerm;68342;52.598;13.450;2023-11-18T08:39:28;42.96;38.39;62.17;;
37162;Laerm;68342;52.598;13.450;2023-11-18T08:41:54;43.33;36.96;61.20;;
37162;Laerm;68342;52.598;13.450;2023-11-18T08:44:19;42.51;38.11;55.13;;
37162;Laerm;68342;52.598;13.450;2023-11-18T08:46:45;42.09;37.64;54.12;;
37162;Laerm;68342;52.598;13.450;2023-11-18T08:49:10;41.67;38.21;50.79;;
37162;Laerm;68342;52.598;13.450;2023-11-18T08:51:38;41.30;37.40;55.45;;
37162;Laerm;68342;52.598;13.450;2023-11-18T08:54:07;43.44;37.60;53.83;;
37162;Laerm;68342;52.598;13.450;2023-11-18T08:56:50;41.48;36.11;54.27;;
37162;Laerm;68342;52.598;13.450;2023-11-18T08:59:19;41.84;37.25;54.64;;
37162;Laerm;68342;52.598;13.450;2023-11-18T09:01:53;41.28;36.27;60.82;;
37162;Laerm;68342;52.598;13.450;2023-11-18T09:04:24;40.88;35.64;54.15;;
37162;Laerm;68342;52.598;13.450;2023-11-18T09:06:50;41.57;36.90;57.36;;
37162;Laerm;68342;52.598;13.450;2023-11-18T09:09:19;43.32;37.82;58.32;;
37162;Laerm;68342;52.598;13.450;2023-11-18T09:11:51;41.74;35.65;52.70;;
37162;Laerm;68342;52.598;13.450;2023-11-18T09:14:16;42.75;37.09;56.49;;
37162;Laerm;68342;52.598;13.450;2023-11-18T09:16:44;46.22;37.99;59.22;;
37162;Laerm;68342;52.598;13.450;2023-11-18T09:19:09;43.30;37.82;57.63;;
37162;Laerm;68342;52.598;13.450;2023-11-18T09:21:35;44.40;37.25;61.50;;
37162;Laerm;68342;52.598;13.450;2023-11-18T09:24:01;41.88;36.54;60.21;;
37162;Laerm;68342;52.598;13.450;2023-11-18T09:26:37;43.23;37.42;60.56;;
37162;Laerm;68342;52.598;13.450;2023-11-18T09:29:02;42.30;36.49;53.45;;
37162;Laerm;68342;52.598;13.450;2023-11-18T09:31:27;40.63;36.46;56.69;;
37162;Laerm;68342;52.598;13.450;2023-11-18T09:33:52;42.89;34.93;62.39;;
37162;Laerm;68342;52.598;13.450;2023-11-18T09:36:18;41.96;36.01;62.79;;
37162;Laerm;68342;52.598;13.450;2023-11-18T09:38:44;40.70;35.36;64.09;;
37162;Laerm;68342;52.598;13.450;2023-11-18T09:41:12;41.53;35.51;63.30;;
37162;Laerm;68342;52.598;13.450;2023-11-18T09:43:41;40.46;35.77;56.30;;
37162;Laerm;68342;52.598;13.450;2023-11-18T09:48:47;40.65;35.79;53.32;;
37162;Laerm;68342;52.598;13.450;2023-11-18T09:51:15;43.68;34.48;67.70;;
37162;Laerm;68342;52.598;13.450;2023-11-18T09:53:46;42.73;35.50;60.41;;
37162;Laerm;68342;52.598;13.450;2023-11-18T09:56:19;46.29;36.21;72.39;;
37162;Laerm;68342;52.598;13.450;2023-11-18T09:59:14;40.60;35.14;54.32;;
37162;Laerm;68342;52.598;13.450;2023-11-18T10:01:41;43.91;35.97;63.34;;
37162;Laerm;68342;52.598;13.450;2023-11-18T10:04:08;46.11;37.12;69.57;;
37162;Laerm;68342;52.598;13.450;2023-11-18T10:06:36;54.38;37.00;65.19;;
37162;Laerm;68342;52.598;13.450;2023-11-18T10:09:04;43.63;38.74;65.36;;
37162;Laerm;68342;52.598;13.450;2023-11-18T10:11:43;45.75;36.84;60.64;;
37162;Laerm;68342;52.598;13.450;2023-11-18T10:14:11;42.85;37.20;56.43;;
37162;Laerm;68342;52.598;13.450;2023-11-18T10:16:40;44.75;38.69;64.84;;
37162;Laerm;68342;52.598;13.450;2023-11-18T10:19:06;48.66;36.79;70.88;;
37162;Laerm;68342;52.598;13.450;2023-11-18T10:21:36;41.85;36.84;51.96;;
37162;Laerm;68342;52.598;13.450;2023-11-18T10:24:05;43.38;38.12;62.30;;
37162;Laerm;68342;52.598;13.450;2023-11-18T10:26:37;53.90;36.30;62.12;;
37162;Laerm;68342;52.598;13.450;2023-11-18T10:29:03;58.46;52.13;64.40;;
37162;Laerm;68342;52.598;13.450;2023-11-18T10:31:32;54.43;51.24;62.97;;
37162;Laerm;68342;52.598;13.450;2023-11-18T10:34:00;53.98;49.81;65.36;;
37162;Laerm;68342;52.598;13.450;2023-11-18T10:36:25;55.38;49.37;68.26;;
37162;Laerm;68342;52.598;13.450;2023-11-18T10:38:51;57.60;48.82;74.98;;
37162;Laerm;68342;52.598;13.450;2023-11-18T10:41:20;48.06;36.19;63.83;;
37162;Laerm;68342;52.598;13.450;2023-11-18T10:43:46;41.59;36.63;62.29;;
37162;Laerm;68342;52.598;13.450;2023-11-18T10:46:13;42.48;37.34;53.38;;
37162;Laerm;68342;52.598;13.450;2023-11-18T10:48:47;41.37;36.38;56.90;;
37162;Laerm;68342;52.598;13.450;2023-11-18T10:51:17;41.18;35.24;59.71;;
37162;Laerm;68342;52.598;13.450;2023-11-18T10:53:44;42.05;36.56;62.21;;
37162;Laerm;68342;52.598;13.450;2023-11-18T10:56:31;42.16;36.57;59.63;;
37162;Laerm;68342;52.598;13.450;2023-11-18T11:01:32;43.17;37.04;58.46;;
37162;Laerm;68342;52.598;13.450;2023-11-18T11:03:57;43.08;36.67;59.86;;
37162;Laerm;68342;52.598;13.450;2023-11-18T11:06:23;41.00;36.72;59.93;;
37162;Laerm;68342;52.598;13.450;2023-11-18T11:08:52;42.43;36.91;64.91;;
37162;Laerm;68342;52.598;13.450;2023-11-18T11:11:21;43.66;36.30;71.22;;
37162;Laerm;68342;52.598;13.450;2023-11-18T11:13:55;41.11;36.32;58.23;;
37162;Laerm;68342;52.598;13.450;2023-11-18T11:16:21;40.57;36.48;52.48;;
37162;Laerm;68342;52.598;13.450;2023-11-18T11:18:51;43.94;36.00;61.86;;
37162;Laerm;68342;52.598;13.450;2023-11-18T11:21:24;44.78;36.38;69.20;;
37162;Laerm;68342;52.598;13.450;2023-11-18T11:23:53;48.89;36.97;75.35;;
37162;Laerm;68342;52.598;13.450;2023-11-18T11:26:26;49.07;37.64;79.62;;
37162;Laerm;68342;52.598;13.450;2023-11-18T11:31:21;45.75;37.44;63.30;;
37162;Laerm;68342;52.598;13.450;2023-11-18T11:33:58;45.00;36.57;63.94;;
37162;Laerm;68342;52.598;13.450;2023-11-18T11:36:27;47.30;36.88;69.55;;
37162;Laerm;68342;52.598;13.450;2023-11-18T11:38:54;39.44;35.30;52.23;;
37162;Laerm;68342;52.598;13.450;2023-11-18T11:41:21;40.40;36.23;53.45;;
37162;Laerm;68342;52.598;13.450;2023-11-18T11:43:51;42.84;35.80;60.07;;
37162;Laerm;68342;52.598;13.450;2023-11-18T11:46:20;40.07;36.00;52.91;;
37162;Laerm;68342;52.598;13.450;2023-11-18T11:48:48;41.78;36.98;57.99;;
37162;Laerm;68342;52.598;13.450;2023-11-18T11:54:13;40.37;36.16;52.66;;
37162;Laerm;68342;52.598;13.450;2023-11-18T11:56:43;40.83;35.96;52.45;;
37162;Laerm;68342;52.598;13.450;2023-11-18T11:59:12;42.10;36.47;53.79;;
37162;Laerm;68342;52.598;13.450;2023-11-18T12:01:37;42.00;35.81;59.43;;
37162;Laerm;68342;52.598;13.450;2023-11-18T12:04:12;40.78;36.79;53.04;;
37162;Laerm;68342;52.598;13.450;2023-11-18T12:06:46;43.80;36.98;62.08;;
37162;Laerm;68342;52.598;13.450;2023-11-18T12:09:13;42.00;36.61;56.88;;
37162;Laerm;68342;52.598;13.450;2023-11-18T12:11:44;44.28;37.01;62.88;;
37162;Laerm;68342;52.598;13.450;2023-11-18T12:14:13;42.25;36.05;58.23;;
37162;Laerm;68342;52.598;13.450;2023-11-18T12:17:07;48.22;37.14;79.80;;
37162;Laerm;68342;52.598;13.450;2023-11-18T12:19:40;49.26;38.76;71.39;;
37162;Laerm;68342;52.598;13.450;2023-11-18T12:24:46;47.30;39.36;59.06;;
37162;Laerm;68342;52.598;13.450;2023-11-18T12:35:19;50.69;41.82;65.62;;
37162;Laerm;68342;52.598;13.450;2023-11-18T12:37:54;53.89;43.04;79.78;;
37162;Laerm;68342;52.598;13.450;2023-11-18T12:43:15;56.27;42.25;72.96;;
37162;Laerm;68342;52.598;13.450;2023-11-18T12:45:45;51.69;42.18;71.35;;
37162;Laerm;68342;52.598;13.450;2023-11-18T12:48:19;55.00;42.32;71.56;;
37162;Laerm;68342;52.598;13.450;2023-11-18T12:50:52;49.80;39.77;64.47;;
37162;Laerm;68342;52.598;13.450;2023-11-18T12:53:18;48.82;40.90;60.86;;
37162;Laerm;68342;52.598;13.450;2023-11-18T12:55:44;50.37;38.70;72.39;;
37162;Laerm;68342;52.598;13.450;2023-11-18T12:58:09;50.51;40.51;65.61;;
37162;Laerm;68342;52.598;13.450;2023-11-18T13:00:36;44.23;37.28;55.35;;
37162;Laerm;68342;52.598;13.450;2023-11-18T13:03:02;45.84;37.66;60.87;;
37162;Laerm;68342;52.598;13.450;2023-11-18T13:05:27;50.77;39.45;77.73;;
37162;Laerm;68342;52.598;13.450;2023-11-18T13:07:55;45.38;38.87;60.81;;
37162;Laerm;68342;52.598;13.450;2023-11-18T13:10:22;44.73;38.33;53.93;;
37162;Laerm;68342;52.598;13.450;2023-11-18T13:12:47;45.05;39.55;63.46;;
37162;Laerm;68342;52.598;13.450;2023-11-18T13:15:12;52.70;38.19;85.05;;
37162;Laerm;68342;52.598;13.450;2023-11-18T13:17:37;46.18;38.71;54.45;;
37162;Laerm;68342;52.598;13.450;2023-11-18T13:20:11;46.10;42.54;54.69;;
37162;Laerm;68342;52.598;13.450;2023-11-18T13:22:38;45.50;42.01;52.83;;
37162;Laerm;68342;52.598;13.450;2023-11-18T13:25:04;46.05;42.26;54.88;;
37162;Laerm;68342;52.598;13.450;2023-11-18T13:27:30;45.99;37.98;63.58;;
37162;Laerm;68342;52.598;13.450;2023-11-18T13:29:57;45.03;37.35;51.86;;
37162;Laerm;68342;52.598;13.450;2023-11-18T13:32:23;45.49;39.27;56.51;;
37162;Laerm;68342;52.598;13.450;2023-11-18T13:34:50;42.43;38.38;56.23;;
37162;Laerm;68342;52.598;13.450;2023-11-18T13:37:16;44.96;38.98;53.90;;
37162;Laerm;68342;52.598;13.450;2023-11-18T13:39:45;45.36;41.53;53.04;;
37162;Laerm;68342;52.598;13.450;2023-11-18T13:42:20;45.63;38.64;61.84;;
37162;Laerm;68342;52.598;13.450;2023-11-18T13:44:45;47.27;38.24;58.99;;
37162;Laerm;68342;52.598;13.450;2023-11-18T13:47:13;46.64;41.92;57.67;;
37162;Laerm;68342;52.598;13.450;2023-11-18T13:49:39;44.59;39.50;58.11;;
37162;Laerm;68342;52.598;13.450;2023-11-18T13:52:08;43.19;37.95;56.47;;
37162;Laerm;68342;52.598;13.450;2023-11-18T13:54:35;49.10;37.79;77.04;;
37162;Laerm;68342;52.598;13.450;2023-11-18T13:57:02;47.34;37.26;72.06;;
37162;Laerm;68342;52.598;13.450;2023-11-18T13:59:28;44.78;37.01;55.24;;